Time;durP1;ratioP1;P1;durP2;ratioP2;P2;SDS_P1;SDS_P2;PMS_P1;PMS_P2;Temp;Humidity;BMP_temperature;BMP_pressure;BME280_temperature;BME280_humidity;BME280_pressure;Samples;Min_cycle;Max_cycle;Signal;HPM_P1;HPM_P2
2023/01/10 00:02:02;;;;;;;1.40;1.10;;;4.70;99.90;;;;;;4990727;28;20881;-78
2023/01/10 00:04:29;;;;;;;1.87;0.80;;;4.70;99.90;;;;;;4974089;28;20486;-80
2023/01/10 00:06:55;;;;;;;1.50;0.70;;;4.70;99.90;;;;;;4990559;28;20285;-80
2023/01/10 00:09:21;;;;;;;2.40;0.93;;;4.70;99.90;;;;;;4990502;28;20538;-81
2023/01/10 00:14:33;;;;;;;2.73;0.83;;;4.70;99.90;;;;;;4990956;28;20278;-81
2023/01/10 00:17:00;;;;;;;10.88;1.05;;;4.60;99.90;;;;;;4991880;28;20424;-81
2023/01/10 00:19:26;;;;;;;2.40;1.10;;;4.50;99.90;;;;;;4974431;28;20201;-81
2023/01/10 00:21:52;;;;;;;1.97;0.80;;;4.50;99.90;;;;;;4958220;28;20452;-80
2023/01/10 00:24:17;;;;;;;0.97;0.87;;;4.60;99.90;;;;;;4990230;28;20249;-79
2023/01/10 00:26:49;;;;;;;1.73;0.87;;;4.50;99.90;;;;;;4991841;28;20189;-79
2023/01/10 00:29:20;;;;;;;4.43;0.73;;;4.50;99.90;;;;;;4974149;28;20173;-77
2023/01/10 00:31:47;;;;;;;1.13;0.70;;;4.50;99.90;;;;;;4973603;28;20266;-78
2023/01/10 00:34:13;;;;;;;0.90;0.60;;;4.40;99.90;;;;;;4989948;28;20505;-78
2023/01/10 00:36:39;;;;;;;0.93;0.60;;;4.30;99.90;;;;;;4973606;28;20455;-77
2023/01/10 00:39:05;;;;;;;1.52;0.90;;;4.30;99.90;;;;;;4991066;28;20416;-77
2023/01/10 00:44:15;;;;;;;0.80;0.80;;;4.40;99.90;;;;;;4989654;28;20413;-77
2023/01/10 00:46:40;;;;;;;2.30;0.73;;;4.40;99.90;;;;;;4991241;28;20196;-80
2023/01/10 00:49:07;;;;;;;2.60;0.80;;;4.30;99.90;;;;;;4957882;28;20200;-81
2023/01/10 00:51:33;;;;;;;1.03;0.60;;;4.50;99.90;;;;;;4957668;28;20608;-80
2023/01/10 00:53:59;;;;;;;1.67;0.80;;;4.30;99.90;;;;;;4991372;28;20438;-80
2023/01/10 00:56:25;;;;;;;2.17;1.00;;;4.30;99.90;;;;;;4973430;28;20546;-82
2023/01/10 00:58:50;;;;;;;2.20;0.80;;;4.30;99.90;;;;;;4990038;28;21011;-81
2023/01/10 01:01:16;;;;;;;1.17;0.80;;;4.20;99.90;;;;;;4973654;28;20207;-81
2023/01/10 01:03:41;;;;;;;0.70;0.70;;;4.20;99.90;;;;;;4976113;28;20192;-81
2023/01/10 01:06:08;;;;;;;1.23;0.90;;;4.40;99.90;;;;;;4977270;28;20688;-81
2023/01/10 01:08:34;;;;;;;0.70;0.68;;;4.20;99.90;;;;;;4979220;28;20192;-83
2023/01/10 01:11:00;;;;;;;0.80;0.60;;;4.20;99.90;;;;;;4999105;28;20288;-82
2023/01/10 01:13:25;;;;;;;1.00;0.70;;;4.20;99.90;;;;;;5005580;28;20414;-81
2023/01/10 01:15:51;;;;;;;3.03;0.87;;;4.20;99.90;;;;;;4987603;28;20736;-81
2023/01/10 01:18:19;;;;;;;1.00;0.70;;;4.20;99.90;;;;;;4982503;28;20808;-81
2023/01/10 01:20:46;;;;;;;0.80;0.75;;;4.20;99.90;;;;;;4978683;28;20199;-81
2023/01/10 01:23:13;;;;;;;1.17;1.00;;;4.00;99.90;;;;;;4994478;28;20278;-81
2023/01/10 01:25:38;;;;;;;0.80;0.60;;;4.10;99.90;;;;;;4977466;28;20435;-81
2023/01/10 01:28:04;;;;;;;1.73;0.83;;;3.90;99.90;;;;;;4978187;28;20423;-80
2023/01/10 01:30:30;;;;;;;1.27;0.70;;;3.80;99.90;;;;;;4993819;28;20242;-80
2023/01/10 01:32:56;;;;;;;1.67;0.77;;;3.80;99.90;;;;;;4993204;28;20479;-81
2023/01/10 01:35:21;;;;;;;0.90;0.73;;;3.80;99.90;;;;;;4994251;28;20304;-80
2023/01/10 01:37:47;;;;;;;0.70;0.60;;;3.90;99.90;;;;;;4976260;28;20586;-81
2023/01/10 01:40:17;;;;;;;0.77;0.67;;;3.90;99.90;;;;;;4994194;28;20191;-81
2023/01/10 01:42:43;;;;;;;0.70;0.60;;;3.90;99.90;;;;;;4976032;28;20206;-80
2023/01/10 01:45:27;;;;;;;0.67;0.50;;;3.80;99.90;;;;;;4976492;28;20192;-81
2023/01/10 01:47:56;;;;;;;0.77;0.60;;;3.80;99.90;;;;;;4976140;28;20424;-80
2023/01/10 01:50:31;;;;;;;0.80;0.55;;;3.70;99.90;;;;;;4976115;28;20864;-81
2023/01/10 01:53:00;;;;;;;0.70;0.50;;;3.60;99.90;;;;;;4993769;28;20171;-80
2023/01/10 01:55:30;;;;;;;0.70;0.47;;;3.60;99.90;;;;;;4993113;28;20295;-80
2023/01/10 01:57:58;;;;;;;1.00;0.65;;;3.50;99.90;;;;;;4993912;28;20180;-79
2023/01/10 02:00:23;;;;;;;0.80;0.45;;;3.60;99.90;;;;;;4976624;28;20214;-79
2023/01/10 02:02:52;;;;;;;1.13;0.60;;;3.50;99.90;;;;;;4994249;28;20587;-80
2023/01/10 02:05:22;;;;;;;0.80;0.60;;;3.50;99.90;;;;;;4976865;28;20191;-82
2023/01/10 02:07:52;;;;;;;0.80;0.50;;;3.60;99.90;;;;;;4976699;28;20454;-81
2023/01/10 02:10:40;;;;;;;0.70;0.60;;;3.60;99.90;;;;;;4976742;28;20187;-80
2023/01/10 02:13:08;;;;;;;0.70;0.60;;;3.60;99.90;;;;;;4977796;28;20167;-80
2023/01/10 02:15:34;;;;;;;0.70;0.60;;;3.60;99.90;;;;;;4995023;28;20281;-79
2023/01/10 02:18:01;;;;;;;1.10;0.70;;;3.60;99.90;;;;;;4977398;28;20934;-79
2023/01/10 02:20:30;;;;;;;0.93;0.70;;;3.60;99.90;;;;;;4993252;28;20193;-79
2023/01/10 02:23:05;;;;;;;2.90;0.93;;;3.60;99.90;;;;;;4977047;28;20191;-79
2023/01/10 02:26:05;;;;;;;2.08;0.73;;;3.70;99.90;;;;;;4992925;28;20543;-79
2023/01/10 02:28:58;;;;;;;0.70;0.60;;;3.60;99.90;;;;;;4993752;28;20192;-80
2023/01/10 02:31:38;;;;;;;2.13;0.82;;;3.60;99.90;;;;;;4993675;28;20208;-80
2023/01/10 02:34:24;;;;;;;1.90;1.03;;;3.60;99.90;;;;;;4994400;28;20274;-80
2023/01/10 02:37:16;;;;;;;1.95;0.60;;;3.60;99.90;;;;;;4995396;28;20441;-79
2023/01/10 02:40:06;;;;;;;1.08;0.75;;;3.60;99.90;;;;;;4995824;28;20183;-80
2023/01/10 02:42:50;;;;;;;0.85;0.85;;;3.60;99.90;;;;;;4995125;28;20210;-81
2023/01/10 02:45:30;;;;;;;1.10;0.73;;;3.60;99.90;;;;;;4993872;28;20198;-80
2023/01/10 02:47:56;;;;;;;1.45;0.80;;;3.70;99.90;;;;;;4977477;28;20667;-79
2023/01/10 02:50:29;;;;;;;1.65;0.80;;;3.70;99.90;;;;;;4977741;28;20529;-81
2023/01/10 02:53:03;;;;;;;2.10;0.70;;;3.70;99.90;;;;;;4993630;28;20188;-80
2023/01/10 02:56:03;;;;;;;0.90;0.80;;;3.80;99.90;;;;;;4961594;28;20218;-79
2023/01/10 02:58:55;;;;;;;1.70;1.10;;;3.80;99.90;;;;;;4993392;28;20366;-80
2023/01/10 03:01:26;;;;;;;0.70;0.60;;;3.80;99.90;;;;;;4977627;28;20211;-80
2023/01/10 03:04:07;;;;;;;0.70;0.60;;;3.90;99.90;;;;;;4994670;28;20603;-83
2023/01/10 03:06:42;;;;;;;3.20;0.90;;;3.90;99.90;;;;;;4993783;28;20520;-82
2023/01/10 03:09:22;;;;;;;1.13;0.90;;;3.90;99.90;;;;;;4994016;28;20251;-81
2023/01/10 03:11:50;;;;;;;1.17;0.80;;;3.90;99.90;;;;;;4976021;28;20329;-82
2023/01/10 03:14:21;;;;;;;0.70;0.70;;;3.90;99.90;;;;;;4975341;28;20281;-81
2023/01/10 03:16:52;;;;;;;2.17;0.80;;;3.90;99.90;;;;;;4993030;28;20171;-80
2023/01/10 03:19:24;;;;;;;1.02;0.75;;;3.90;99.90;;;;;;4975396;28;20183;-81
2023/01/10 03:21:53;;;;;;;1.02;0.93;;;3.90;99.90;;;;;;4992658;28;20287;-82
2023/01/10 03:24:34;;;;;;;2.88;0.93;;;3.90;99.90;;;;;;4975540;28;20842;-80
2023/01/10 03:27:50;;;;;;;4.80;1.30;;;3.90;99.90;;;;;;4975337;28;20713;-81
2023/01/10 03:30:43;;;;;;;1.42;0.70;;;4.00;99.90;;;;;;4970780;28;20570;-80
2023/01/10 03:33:11;;;;;;;1.45;1.05;;;4.00;99.90;;;;;;4975970;28;20204;-80
2023/01/10 03:35:47;;;;;;;1.25;0.80;;;4.00;99.90;;;;;;4975886;28;20258;-80
2023/01/10 03:38:30;;;;;;;3.38;0.80;;;4.00;99.90;;;;;;4975090;28;20241;-79
2023/01/10 03:41:03;;;;;;;2.45;1.13;;;4.00;99.90;;;;;;4975363;28;21001;-78
2023/01/10 03:46:47;;;;;;;2.97;0.85;;;4.10;99.90;;;;;;4992008;28;20242;-78
2023/01/10 03:49:14;;;;;;;1.65;0.70;;;4.10;99.90;;;;;;4974140;28;20176;-78
2023/01/10 03:51:41;;;;;;;1.45;0.93;;;4.10;99.90;;;;;;4991853;28;20208;-79
2023/01/10 03:54:07;;;;;;;1.00;0.90;;;4.10;99.90;;;;;;4990740;28;20189;-79
2023/01/10 03:56:53;;;;;;;5.38;0.80;;;4.10;99.90;;;;;;4974201;28;20219;-79
2023/01/10 03:59:25;;;;;;;1.10;0.67;;;4.00;99.90;;;;;;4990563;28;20195;-79
2023/01/10 04:01:51;;;;;;;0.77;0.70;;;4.10;99.90;;;;;;4990976;28;20518;-79
2023/01/10 04:04:17;;;;;;;2.05;0.50;;;4.10;99.90;;;;;;4992085;28;20682;-79
2023/01/10 04:06:43;;;;;;;0.90;0.67;;;4.10;99.90;;;;;;4992331;28;20194;-79
2023/01/10 04:09:09;;;;;;;0.80;0.50;;;4.10;99.90;;;;;;4974745;28;20416;-78
2023/01/10 04:11:35;;;;;;;0.70;0.50;;;4.10;99.90;;;;;;4974763;28;20347;-79
2023/01/10 04:14:00;;;;;;;0.70;0.60;;;4.10;99.90;;;;;;4991190;28;20275;-78
2023/01/10 04:16:26;;;;;;;0.80;0.50;;;4.10;99.90;;;;;;4991655;28;20263;-78
2023/01/10 04:18:52;;;;;;;0.80;0.60;;;4.00;99.90;;;;;;4992562;28;20253;-78
2023/01/10 04:21:18;;;;;;;0.70;0.50;;;4.00;99.90;;;;;;4992814;28;20495;-78
2023/01/10 04:23:43;;;;;;;0.77;0.60;;;4.00;99.90;;;;;;4992813;28;20178;-78
2023/01/10 04:26:09;;;;;;;1.20;0.50;;;4.00;99.90;;;;;;4991081;28;20195;-78
2023/01/10 04:28:34;;;;;;;0.70;0.40;;;3.90;99.90;;;;;;4991060;28;20638;-78
2023/01/10 04:31:00;;;;;;;0.67;0.50;;;3.90;99.90;;;;;;4990994;28;20358;-77
2023/01/10 04:33:27;;;;;;;0.70;0.50;;;3.90;99.90;;;;;;4990905;28;20212;-78
2023/01/10 04:35:53;;;;;;;0.70;0.50;;;3.90;99.90;;;;;;4990802;28;20255;-78
2023/01/10 04:38:18;;;;;;;1.10;0.50;;;3.80;99.90;;;;;;4992061;28;20185;-78
2023/01/10 04:40:50;;;;;;;0.67;0.50;;;3.80;99.90;;;;;;4990600;28;20247;-78
2023/01/10 04:43:16;;;;;;;0.70;0.60;;;3.80;99.90;;;;;;4991755;28;20412;-78
2023/01/10 04:45:42;;;;;;;0.70;0.50;;;3.70;99.90;;;;;;4958042;28;20241;-78
2023/01/10 04:48:08;;;;;;;0.70;0.50;;;3.70;99.90;;;;;;4991183;28;20196;-79
2023/01/10 04:50:33;;;;;;;0.60;0.50;;;3.70;99.90;;;;;;4974333;28;20195;-78
2023/01/10 04:52:59;;;;;;;0.70;0.57;;;3.70;99.90;;;;;;4990615;28;20194;-78
2023/01/10 04:55:25;;;;;;;1.17;0.40;;;3.70;99.90;;;;;;4991825;28;20243;-80
2023/01/10 04:57:50;;;;;;;0.90;0.50;;;3.70;99.90;;;;;;4973883;28;20196;-79
2023/01/10 05:00:16;;;;;;;0.60;0.40;;;3.70;99.90;;;;;;4990921;28;20550;-76
2023/01/10 05:02:43;;;;;;;1.03;0.50;;;3.70;99.90;;;;;;4990725;28;20234;-76
2023/01/10 05:05:14;;;;;;;11.05;0.60;;;3.70;99.90;;;;;;4990713;28;20935;-75
2023/01/10 05:07:40;;;;;;;0.85;0.43;;;3.70;99.90;;;;;;4990764;28;20183;-76
2023/01/10 05:10:07;;;;;;;2.40;0.50;;;3.70;99.90;;;;;;4990588;28;20661;-75
2023/01/10 05:12:33;;;;;;;2.53;0.85;;;3.70;99.90;;;;;;4990223;28;20626;-75
2023/01/10 05:14:59;;;;;;;1.50;0.80;;;3.70;99.90;;;;;;4990378;28;20245;-75
2023/01/10 05:17:25;;;;;;;0.97;0.80;;;3.70;99.90;;;;;;4972604;28;20221;-75
2023/01/10 05:19:50;;;;;;;1.83;0.73;;;3.70;99.90;;;;;;4989839;28;20211;-76
2023/01/10 05:22:16;;;;;;;2.60;0.90;;;3.80;99.90;;;;;;4987849;28;20514;-76
2023/01/10 05:24:41;;;;;;;1.73;0.90;;;3.70;99.90;;;;;;4989455;28;20233;-75
2023/01/10 05:27:07;;;;;;;2.40;1.17;;;3.70;99.90;;;;;;4989521;28;20184;-76
2023/01/10 05:29:33;;;;;;;1.10;0.90;;;3.70;99.90;;;;;;4987512;28;20274;-76
2023/01/10 05:32:00;;;;;;;3.33;1.10;;;3.70;99.90;;;;;;4987467;28;20212;-76
2023/01/10 05:34:25;;;;;;;2.55;0.70;;;3.70;99.90;;;;;;4988691;28;20980;-75
2023/01/10 05:36:51;;;;;;;9.77;1.33;;;3.70;99.90;;;;;;4988933;28;20189;-75
2023/01/10 05:39:17;;;;;;;3.43;1.20;;;3.70;99.90;;;;;;4989384;28;20756;-74
2023/01/10 05:41:43;;;;;;;4.37;1.70;;;3.70;99.90;;;;;;4987960;28;20216;-76
2023/01/10 05:44:08;;;;;;;10.07;1.20;;;3.80;99.90;;;;;;4990492;28;20314;-78
2023/01/10 05:46:34;;;;;;;5.60;1.53;;;3.80;99.90;;;;;;4992156;28;20191;-76
2023/01/10 05:48:59;;;;;;;3.67;1.10;;;3.90;99.90;;;;;;4988401;28;20188;-77
2023/01/10 05:51:25;;;;;;;4.03;1.30;;;3.90;99.90;;;;;;4989057;28;20208;-78
2023/01/10 05:53:51;;;;;;;5.83;1.20;;;3.90;99.90;;;;;;4990036;28;20257;-78
2023/01/10 05:56:16;;;;;;;5.20;1.17;;;3.90;99.90;;;;;;4990336;28;20708;-77
2023/01/10 05:58:42;;;;;;;8.53;1.30;;;3.90;99.90;;;;;;4989198;28;20232;-77
2023/01/10 06:01:08;;;;;;;2.20;1.00;;;3.90;99.90;;;;;;4988888;28;20356;-79
2023/01/10 06:03:34;;;;;;;6.88;2.13;;;3.90;99.90;;;;;;4990227;28;20180;-78
2023/01/10 06:06:02;;;;;;;13.20;2.10;;;3.90;99.90;;;;;;4989021;28;20190;-77
2023/01/10 06:08:27;;;;;;;3.33;1.80;;;3.90;99.90;;;;;;4990522;28;20419;-77
2023/01/10 06:10:53;;;;;;;5.27;2.43;;;3.90;99.90;;;;;;4990310;28;20448;-77
2023/01/10 06:13:19;;;;;;;4.37;2.37;;;4.00;99.90;;;;;;4990426;28;20188;-78
2023/01/10 06:15:44;;;;;;;4.30;1.90;;;4.00;99.90;;;;;;4990199;28;20339;-78
2023/01/10 06:18:10;;;;;;;16.50;5.27;;;4.00;99.90;;;;;;4988419;28;20754;-78
2023/01/10 06:20:35;;;;;;;11.33;2.90;;;4.00;99.90;;;;;;4988224;28;20188;-77
2023/01/10 06:23:03;;;;;;;8.00;2.53;;;4.00;99.90;;;;;;4988263;28;20188;-77
2023/01/10 06:25:30;;;;;;;3.70;1.70;;;4.10;99.90;;;;;;4989680;28;20178;-77
2023/01/10 06:27:56;;;;;;;7.75;2.30;;;4.00;99.90;;;;;;4989792;28;20515;-78
2023/01/10 06:30:21;;;;;;;9.70;1.97;;;4.00;99.90;;;;;;4971906;28;20270;-77
2023/01/10 06:32:47;;;;;;;4.13;1.73;;;4.10;99.90;;;;;;4987594;28;20226;-77
2023/01/10 06:35:13;;;;;;;12.30;3.23;;;4.00;99.90;;;;;;4988964;28;20219;-78
2023/01/10 06:37:38;;;;;;;6.93;2.17;;;4.00;99.90;;;;;;4987201;28;20200;-79
2023/01/10 06:40:05;;;;;;;16.53;3.03;;;4.10;99.90;;;;;;4971692;28;20200;-78
2023/01/10 06:42:31;;;;;;;12.52;1.85;;;4.10;99.90;;;;;;4989810;28;20228;-79
2023/01/10 06:44:56;;;;;;;10.97;3.13;;;4.00;99.90;;;;;;4992455;28;20190;-78
2023/01/10 06:47:22;;;;;;;7.73;2.67;;;4.00;99.90;;;;;;4991557;28;20614;-77
2023/01/10 06:49:47;;;;;;;7.73;2.30;;;4.10;99.90;;;;;;4973794;28;20290;-77
2023/01/10 06:52:13;;;;;;;6.20;2.37;;;4.00;99.90;;;;;;4989824;28;20203;-77
2023/01/10 06:54:40;;;;;;;10.43;2.97;;;4.00;99.90;;;;;;4991039;28;20197;-77
2023/01/10 06:57:07;;;;;;;13.20;2.83;;;4.00;99.90;;;;;;4991171;28;20179;-77
2023/01/10 06:59:32;;;;;;;11.85;1.95;;;4.00;99.90;;;;;;4989921;28;20196;-76
2023/01/10 07:01:58;;;;;;;12.60;2.73;;;4.00;99.90;;;;;;4996359;28;20203;-76
2023/01/10 07:04:25;;;;;;;7.07;2.67;;;3.90;99.90;;;;;;5011434;28;20621;-76
2023/01/10 07:06:51;;;;;;;10.40;1.70;;;3.90;99.90;;;;;;5010650;28;20183;-76
2023/01/10 07:09:17;;;;;;;10.07;2.10;;;4.00;99.90;;;;;;5012878;28;20193;-77
2023/01/10 07:11:43;;;;;;;1.57;1.30;;;4.00;99.90;;;;;;5005957;28;20306;-75
2023/01/10 07:14:08;;;;;;;5.20;1.83;;;4.00;99.90;;;;;;4990255;28;20190;-76
2023/01/10 07:16:34;;;;;;;17.43;2.30;;;4.10;99.90;;;;;;4973603;28;20867;-76
2023/01/10 07:19:01;;;;;;;3.53;1.50;;;4.10;99.90;;;;;;4991391;28;20275;-76
2023/01/10 07:21:27;;;;;;;4.75;1.92;;;4.10;99.90;;;;;;4990959;28;20492;-76
2023/01/10 07:23:52;;;;;;;7.45;1.27;;;4.10;99.90;;;;;;4990876;28;20259;-77
2023/01/10 07:26:19;;;;;;;6.87;2.60;;;4.10;99.90;;;;;;4991240;28;20563;-78
2023/01/10 07:28:49;;;;;;;4.95;1.55;;;4.20;99.90;;;;;;4975456;28;20183;-78
2023/01/10 07:31:16;;;;;;;12.40;2.85;;;4.20;99.90;;;;;;4975437;28;20584;-77
2023/01/10 07:33:41;;;;;;;5.00;1.42;;;4.20;99.90;;;;;;4992161;28;20290;-78
2023/01/10 07:36:07;;;;;;;6.47;1.47;;;4.20;99.90;;;;;;4992429;28;20313;-78
2023/01/10 07:38:33;;;;;;;5.17;1.10;;;4.10;99.90;;;;;;4992275;28;20183;-76
2023/01/10 07:41:01;;;;;;;11.30;2.70;;;4.20;99.90;;;;;;4991071;28;20525;-76
2023/01/10 07:43:27;;;;;;;4.72;1.65;;;4.20;99.90;;;;;;4973308;28;20199;-76
2023/01/10 07:45:52;;;;;;;14.77;2.30;;;4.20;99.90;;;;;;4990811;28;20196;-76
2023/01/10 07:48:18;;;;;;;6.53;1.50;;;4.20;99.90;;;;;;4991097;28;20308;-77
2023/01/10 07:50:44;;;;;;;5.00;1.27;;;4.20;99.90;;;;;;4989329;28;20224;-76
2023/01/10 07:53:10;;;;;;;4.90;1.40;;;4.10;99.90;;;;;;4990433;28;20228;-76
2023/01/10 07:55:38;;;;;;;9.47;2.53;;;4.20;99.90;;;;;;4988877;28;20585;-76
2023/01/10 07:58:06;;;;;;;13.10;1.83;;;4.20;99.90;;;;;;4990731;28;20183;-76
2023/01/10 08:00:32;;;;;;;9.35;2.00;;;4.20;99.90;;;;;;4972846;28;20278;-76
2023/01/10 08:02:58;;;;;;;6.38;1.60;;;4.20;99.90;;;;;;4990138;28;20238;-76
2023/01/10 08:05:24;;;;;;;2.37;0.97;;;4.20;99.90;;;;;;4988861;28;21074;-76
2023/01/10 08:07:49;;;;;;;12.00;1.97;;;4.30;99.90;;;;;;4989039;28;20194;-76
2023/01/10 08:10:15;;;;;;;6.17;1.73;;;4.30;99.90;;;;;;4988993;28;20207;-76
2023/01/10 08:12:41;;;;;;;4.77;1.30;;;4.40;99.90;;;;;;4989937;28;20244;-76
2023/01/10 08:15:07;;;;;;;3.77;1.50;;;4.50;99.90;;;;;;4988306;28;20863;-77
2023/01/10 08:17:33;;;;;;;5.73;1.80;;;4.50;99.90;;;;;;4989623;28;20196;-77
2023/01/10 08:19:59;;;;;;;7.53;1.20;;;4.50;99.90;;;;;;4989848;28;20854;-76
2023/01/10 08:22:25;;;;;;;7.10;1.53;;;4.50;99.90;;;;;;4990086;28;20441;-78
2023/01/10 08:24:50;;;;;;;7.00;1.90;;;4.50;99.90;;;;;;4991488;28;20242;-78
2023/01/10 08:27:16;;;;;;;10.70;2.10;;;4.60;99.90;;;;;;4989663;28;20255;-77
2023/01/10 08:29:42;;;;;;;7.07;1.50;;;4.50;99.90;;;;;;4989474;28;20651;-77
2023/01/10 08:32:07;;;;;;;14.77;5.60;;;4.50;99.90;;;;;;4988965;28;20293;-78
2023/01/10 08:34:33;;;;;;;16.97;3.30;;;4.50;99.90;;;;;;4989354;28;20643;-77
2023/01/10 08:36:59;;;;;;;10.73;1.90;;;4.50;99.90;;;;;;4988555;28;20434;-78
2023/01/10 08:39:27;;;;;;;5.20;1.80;;;4.60;99.90;;;;;;4972813;28;20221;-78
2023/01/10 08:41:53;;;;;;;5.40;1.30;;;4.70;99.90;;;;;;4990607;28;20215;-78
2023/01/10 08:44:19;;;;;;;14.00;1.30;;;4.60;99.90;;;;;;4990072;28;20444;-76
2023/01/10 08:46:44;;;;;;;6.27;1.60;;;4.70;99.90;;;;;;4988682;28;20675;-76
2023/01/10 08:49:10;;;;;;;3.27;1.30;;;4.60;99.90;;;;;;4988058;28;20188;-75
2023/01/10 08:51:36;;;;;;;7.53;2.60;;;4.60;99.90;;;;;;4989346;28;20208;-76
2023/01/10 08:54:02;;;;;;;5.10;1.80;;;4.70;99.90;;;;;;4988110;28;20771;-76
2023/01/10 08:56:27;;;;;;;5.73;1.90;;;4.70;99.90;;;;;;4989316;28;20206;-76
2023/01/10 08:58:53;;;;;;;6.10;1.47;;;4.80;99.90;;;;;;4989212;28;20183;-76
2023/01/10 09:01:18;;;;;;;5.97;1.67;;;4.80;99.90;;;;;;4989213;28;20566;-76
2023/01/10 09:03:44;;;;;;;6.87;1.87;;;4.80;99.90;;;;;;4987861;28;20187;-77
2023/01/10 09:06:10;;;;;;;4.00;1.77;;;4.80;99.90;;;;;;4988953;28;20665;-76
2023/01/10 09:08:36;;;;;;;7.03;1.30;;;4.90;99.90;;;;;;4971878;28;20191;-76
2023/01/10 09:11:02;;;;;;;5.90;1.50;;;4.90;99.90;;;;;;4989938;28;20449;-77
2023/01/10 09:13:28;;;;;;;7.20;1.23;;;4.80;99.90;;;;;;4989987;28;20425;-76
2023/01/10 09:15:55;;;;;;;10.23;2.00;;;4.80;99.90;;;;;;4989763;28;20466;-76
2023/01/10 09:18:21;;;;;;;4.47;1.60;;;4.80;99.90;;;;;;4990603;28;20182;-76
2023/01/10 09:20:49;;;;;;;8.53;2.47;;;4.80;99.90;;;;;;4989690;28;20192;-76
2023/01/10 09:23:18;;;;;;;3.57;1.20;;;4.90;99.90;;;;;;4989387;28;20423;-78
2023/01/10 09:25:49;;;;;;;6.88;1.40;;;4.90;99.90;;;;;;4971809;28;20434;-77
2023/01/10 09:28:15;;;;;;;7.00;1.50;;;5.00;99.90;;;;;;4990312;28;20757;-76
2023/01/10 09:30:41;;;;;;;6.67;2.07;;;4.90;99.90;;;;;;4991025;28;20200;-79
2023/01/10 09:33:07;;;;;;;8.60;1.10;;;4.90;99.90;;;;;;4973646;28;20822;-78
2023/01/10 09:35:36;;;;;;;3.20;1.20;;;5.00;99.90;;;;;;4990969;28;21073;-78
2023/01/10 09:38:02;;;;;;;3.30;1.63;;;4.90;99.90;;;;;;4990489;28;20428;-78
2023/01/10 09:40:43;;;;;;;5.45;1.45;;;4.90;99.90;;;;;;4990459;28;20418;-78
2023/01/10 09:43:25;;;;;;;5.97;1.30;;;5.00;99.90;;;;;;4989055;28;20192;-78
2023/01/10 09:45:53;;;;;;;4.45;1.23;;;5.10;99.90;;;;;;4989978;28;20477;-78
2023/01/10 09:48:29;;;;;;;4.25;1.20;;;5.00;99.90;;;;;;4990051;28;20530;-78
2023/01/10 09:51:12;;;;;;;3.85;1.35;;;4.90;99.90;;;;;;4989761;28;20697;-78
2023/01/10 09:53:42;;;;;;;4.22;1.08;;;5.10;99.90;;;;;;4990133;28;20184;-79
2023/01/10 09:56:08;;;;;;;11.13;1.40;;;5.20;99.90;;;;;;4972715;28;20734;-77
2023/01/10 09:58:37;;;;;;;3.80;1.37;;;5.20;99.90;;;;;;4972246;28;20894;-78
2023/01/10 10:01:11;;;;;;;2.78;0.98;;;5.30;99.90;;;;;;4989535;28;20525;-77
2023/01/10 10:03:52;;;;;;;2.90;1.07;;;5.40;99.90;;;;;;4987923;28;20269;-79
2023/01/10 10:06:19;;;;;;;3.92;1.20;;;5.40;99.90;;;;;;4990194;28;20419;-77
2023/01/10 10:08:46;;;;;;;5.93;1.40;;;5.50;99.90;;;;;;4971924;28;20199;-79
2023/01/10 10:11:24;;;;;;;1.73;0.80;;;5.40;99.90;;;;;;4989235;28;20209;-78
2023/01/10 10:14:15;;;;;;;4.23;0.87;;;5.30;99.90;;;;;;4989662;28;20192;-78
2023/01/10 10:17:14;;;;;;;5.30;0.98;;;5.20;99.90;;;;;;4971114;28;20482;-78
2023/01/10 10:19:46;;;;;;;3.08;1.20;;;5.20;99.90;;;;;;4993613;28;20194;-78
2023/01/10 10:22:26;;;;;;;5.43;1.33;;;5.20;99.90;;;;;;4992840;28;20209;-78
2023/01/10 10:25:11;;;;;;;5.57;1.33;;;5.20;99.90;;;;;;4992887;28;20192;-77
2023/01/10 10:28:02;;;;;;;5.40;1.53;;;5.20;99.90;;;;;;4991173;28;20565;-78
2023/01/10 10:30:43;;;;;;;11.27;1.17;;;5.20;99.90;;;;;;4992631;28;20420;-77
2023/01/10 10:33:38;;;;;;;4.67;1.20;;;5.30;99.90;;;;;;4992389;28;20247;-78
2023/01/10 10:36:20;;;;;;;9.68;1.38;;;5.40;99.90;;;;;;4992674;28;20459;-78
2023/01/10 10:38:47;;;;;;;4.60;1.50;;;5.50;99.90;;;;;;4992569;28;20192;-78
2023/01/10 10:41:32;;;;;;;4.77;1.40;;;5.60;99.90;;;;;;4975218;28;20478;-78
2023/01/10 10:44:03;;;;;;;5.37;1.17;;;5.80;99.90;;;;;;4992719;28;20799;-78
2023/01/10 10:46:30;;;;;;;6.87;1.30;;;5.90;99.90;;;;;;4993291;28;20427;-78
2023/01/10 10:49:17;;;;;;;6.47;1.37;;;6.00;99.90;;;;;;4993941;28;20480;-78
2023/01/10 10:51:51;;;;;;;6.43;1.83;;;6.10;99.90;;;;;;4992528;28;20451;-77
2023/01/10 10:54:17;;;;;;;3.60;1.33;;;6.40;99.90;;;;;;4992912;28;20790;-78
2023/01/10 10:56:43;;;;;;;16.70;2.97;;;6.40;99.90;;;;;;4975388;28;20483;-76
2023/01/10 10:59:17;;;;;;;5.93;2.13;;;6.40;99.90;;;;;;4979393;28;20435;-78
2023/01/10 11:01:46;;;;;;;61.77;19.60;;;6.30;99.90;;;;;;4992469;28;20449;-78
2023/01/10 11:04:17;;;;;;;18.53;5.47;;;6.20;99.90;;;;;;4992758;28;20463;-76
2023/01/10 11:06:47;;;;;;;11.30;5.20;;;6.20;99.90;;;;;;4991331;28;20429;-76
2023/01/10 11:11:58;;;;;;;19.70;8.18;;;6.20;99.90;;;;;;4990468;28;20460;-77
2023/01/10 11:14:47;;;;;;;10.07;4.80;;;6.20;99.90;;;;;;4991219;28;20284;-76
2023/01/10 11:17:25;;;;;;;13.70;4.13;;;6.30;99.90;;;;;;4991882;28;20439;-76
2023/01/10 11:20:03;;;;;;;5.63;3.40;;;6.30;99.90;;;;;;4990179;28;20412;-76
2023/01/10 11:22:39;;;;;;;4.63;2.50;;;6.40;99.90;;;;;;4973868;28;21108;-76
2023/01/10 11:25:14;;;;;;;2.23;1.00;;;6.50;99.90;;;;;;4973566;28;20428;-77
2023/01/10 11:27:50;;;;;;;4.33;1.07;;;6.50;99.90;;;;;;4990457;28;20517;-77
2023/01/10 11:30:27;;;;;;;8.83;1.40;;;6.60;99.90;;;;;;4991329;28;20503;-76
2023/01/10 11:32:56;;;;;;;9.23;1.67;;;6.50;99.90;;;;;;4989607;28;20464;-77
2023/01/10 11:35:27;;;;;;;3.80;1.20;;;6.60;99.90;;;;;;4990775;28;20495;-76
2023/01/10 11:38:02;;;;;;;7.90;1.83;;;6.40;99.90;;;;;;4991712;28;20424;-77
2023/01/10 11:40:33;;;;;;;7.90;2.30;;;6.60;99.90;;;;;;4991483;28;20408;-77
2023/01/10 11:43:03;;;;;;;2.53;1.03;;;6.40;99.90;;;;;;4991284;28;20476;-76
2023/01/10 11:45:32;;;;;;;6.23;1.53;;;6.50;99.90;;;;;;4991714;28;20421;-77
2023/01/10 11:48:21;;;;;;;9.43;2.10;;;6.40;99.90;;;;;;4973158;28;20428;-76
2023/01/10 11:50:50;;;;;;;47.87;20.73;;;6.50;99.90;;;;;;4990391;28;20453;-76
2023/01/10 11:53:36;;;;;;;15.97;7.43;;;6.50;99.90;;;;;;4990510;28;20416;-79
2023/01/10 11:56:03;;;;;;;17.70;6.87;;;6.50;99.90;;;;;;4988515;28;20476;-77
2023/01/10 11:58:31;;;;;;;17.20;7.20;;;6.50;99.90;;;;;;4989818;28;20781;-77
2023/01/10 12:00:57;;;;;;;20.93;7.60;;;6.60;99.90;;;;;;4989753;28;20441;-77
2023/01/10 12:03:28;;;;;;;35.60;16.13;;;6.60;99.90;;;;;;4988122;28;20448;-77
2023/01/10 12:06:12;;;;;;;17.20;7.60;;;6.50;99.90;;;;;;4989578;28;20210;-77
2023/01/10 12:08:41;;;;;;;8.90;3.20;;;6.50;99.90;;;;;;4990646;28;20436;-76
2023/01/10 12:11:26;;;;;;;35.37;19.27;;;6.40;99.90;;;;;;4990292;28;20503;-77
2023/01/10 12:13:54;;;;;;;8.20;2.80;;;6.50;99.90;;;;;;4990721;28;20456;-79
2023/01/10 12:16:24;;;;;;;5.00;3.37;;;6.60;99.90;;;;;;4990909;28;20835;-77
2023/01/10 12:18:53;;;;;;;7.40;2.87;;;6.60;99.90;;;;;;4990568;28;20413;-77
2023/01/10 12:21:25;;;;;;;5.57;1.23;;;6.60;99.90;;;;;;4972832;28;20540;-77
2023/01/10 12:23:53;;;;;;;4.30;1.37;;;6.40;99.90;;;;;;4990460;28;20479;-77
2023/01/10 12:26:19;;;;;;;1.97;1.07;;;6.60;99.90;;;;;;4989920;28;20420;-76
2023/01/10 12:28:56;;;;;;;5.77;1.70;;;6.50;99.90;;;;;;4989778;28;20425;-77
2023/01/10 12:31:22;;;;;;;3.13;1.13;;;6.60;99.90;;;;;;4989982;28;20209;-77
2023/01/10 12:34:13;;;;;;;5.17;1.50;;;6.50;99.90;;;;;;4989785;28;20449;-76
2023/01/10 12:36:43;;;;;;;10.60;3.97;;;6.50;99.90;;;;;;4982224;28;20481;-76
2023/01/10 12:39:25;;;;;;;2.70;1.20;;;6.60;99.90;;;;;;4989183;28;20458;-77
2023/01/10 12:44:45;;;;;;;5.53;1.27;;;6.70;99.90;;;;;;4989508;28;20483;-77
2023/01/10 12:47:27;;;;;;;4.70;1.30;;;6.70;99.90;;;;;;4990012;28;20637;-77
2023/01/10 12:50:21;;;;;;;3.50;1.23;;;6.80;99.90;;;;;;4972929;28;20479;-76
2023/01/10 12:53:07;;;;;;;6.77;1.23;;;6.80;99.90;;;;;;4963480;28;20448;-77
2023/01/10 12:55:39;;;;;;;2.73;0.80;;;6.70;99.90;;;;;;4989913;28;20444;-77
2023/01/10 12:58:06;;;;;;;1.53;1.00;;;6.60;99.90;;;;;;4988826;28;20417;-77
2023/01/10 13:00:34;;;;;;;2.17;1.10;;;6.80;99.90;;;;;;4991001;28;20425;-76
2023/01/10 13:03:04;;;;;;;1.57;0.70;;;7.10;99.90;;;;;;4990355;28;20500;-77
2023/01/10 13:05:31;;;;;;;10.43;1.10;;;7.10;99.90;;;;;;4989366;28;20425;-77
2023/01/10 13:08:11;;;;;;;2.30;0.93;;;7.30;99.90;;;;;;4989396;28;20432;-78
2023/01/10 13:10:41;;;;;;;5.60;1.87;;;7.20;99.90;;;;;;4989021;28;20431;-77
2023/01/10 13:13:20;;;;;;;2.30;0.90;;;7.10;99.90;;;;;;4988772;28;20569;-77
2023/01/10 13:15:52;;;;;;;5.40;0.80;;;7.40;99.90;;;;;;4988864;28;20483;-77
2023/01/10 13:18:23;;;;;;;3.33;1.00;;;8.00;99.90;;;;;;4988942;28;20453;-77
2023/01/10 13:21:00;;;;;;;3.43;1.40;;;8.40;98.90;;;;;;4971812;28;20413;-77
2023/01/10 13:23:32;;;;;;;3.67;1.23;;;8.70;95.90;;;;;;4989653;28;20413;-77
2023/01/10 13:26:09;;;;;;;3.97;1.00;;;9.30;96.90;;;;;;4971520;28;20434;-76